Time;durP1;ratioP1;P1;durP2;ratioP2;P2;SDS_P1;SDS_P2;PMS_P1;PMS_P2;Temp;Humidity;BMP_temperature;BMP_pressure;BME280_temperature;BME280_humidity;BME280_pressure;Samples;Min_cycle;Max_cycle;Signal;HPM_P1;HPM_P2
2021/07/04 00:02:17;;;;;;;;;;;;;;;18.40;72.55;101501.97;5054473;28;19935;-68
2021/07/04 00:04:44;;;;;;;;;;;;;;;18.26;72.57;101501.22;5054045;28;19944;-68
2021/07/04 00:07:11;;;;;;;;;;;;;;;18.35;72.60;101499.69;5054341;28;19921;-68
2021/07/04 00:09:38;;;;;;;;;;;;;;;18.35;72.88;101502.31;5053777;28;20318;-68
2021/07/04 00:12:05;;;;;;;;;;;;;;;18.43;72.39;101504.38;5053958;28;19920;-67
2021/07/04 00:14:33;;;;;;;;;;;;;;;18.25;73.58;101498.69;5053599;28;20381;-68
2021/07/04 00:16:59;;;;;;;;;;;;;;;18.46;71.86;101504.13;5053801;28;19946;-67
2021/07/04 00:19:26;;;;;;;;;;;;;;;18.56;71.21;101496.34;5053818;28;20371;-67
2021/07/04 00:21:53;;;;;;;;;;;;;;;18.59;70.94;101496.94;5053370;28;20299;-67
2021/07/04 00:24:19;;;;;;;;;;;;;;;18.54;71.66;101503.53;5053744;28;20318;-67
2021/07/04 00:26:46;;;;;;;;;;;;;;;18.75;70.29;101499.25;5053739;28;19920;-67
2021/07/04 00:29:13;;;;;;;;;;;;;;;18.63;71.74;101497.56;5053848;28;19927;-67
2021/07/04 00:31:41;;;;;;;;;;;;;;;18.49;71.86;101498.63;5053673;28;19920;-67
2021/07/04 00:34:07;;;;;;;;;;;;;;;18.58;71.00;101492.66;5053448;28;19920;-67
2021/07/04 00:36:34;;;;;;;;;;;;;;;18.66;70.81;101497.31;5053471;28;19920;-68
2021/07/04 00:39:00;;;;;;;;;;;;;;;18.72;70.58;101492.41;5053757;28;19935;-68
2021/07/04 00:41:27;;;;;;;;;;;;;;;18.72;70.95;101502.09;5053706;28;19921;-67
2021/07/04 00:43:54;;;;;;;;;;;;;;;18.69;71.37;101500.56;5053342;28;19920;-68
2021/07/04 00:46:20;;;;;;;;;;;;;;;18.75;70.53;101499.25;5053527;28;19921;-67
2021/07/04 00:48:48;;;;;;;;;;;;;;;18.89;69.61;101503.47;5052825;28;20383;-67
2021/07/04 00:51:15;;;;;;;;;;;;;;;18.92;69.32;101505.88;5053600;28;19928;-67
2021/07/04 00:53:42;;;;;;;;;;;;;;;18.90;69.25;101499.88;5053252;28;19927;-68
2021/07/04 00:56:08;;;;;;;;;;;;;;;19.10;68.79;101507.06;5053259;28;19925;-68
2021/07/04 00:58:35;;;;;;;;;;;;;;;19.01;69.65;101510.44;5053090;28;19927;-68
2021/07/04 01:01:02;;;;;;;;;;;;;;;18.88;70.40;101507.06;5052343;28;20363;-68
2021/07/04 01:03:28;;;;;;;;;;;;;;;18.57;72.68;101514.66;5053015;28;19925;-68
2021/07/04 01:05:56;;;;;;;;;;;;;;;18.57;71.76;101513.84;5052698;28;20291;-68
2021/07/04 01:08:23;;;;;;;;;;;;;;;18.70;71.11;101517.19;5052820;28;20282;-68
2021/07/04 01:10:50;;;;;;;;;;;;;;;18.68;70.96;101516.50;5052888;28;19920;-68
2021/07/04 01:13:16;;;;;;;;;;;;;;;18.81;70.12;101506.72;5053134;28;19920;-68
2021/07/04 01:15:45;;;;;;;;;;;;;;;18.96;70.13;101511.72;5052486;28;19928;-68
2021/07/04 01:18:12;;;;;;;;;;;;;;;18.89;70.38;101511.38;5052660;28;19928;-67
2021/07/04 01:20:39;;;;;;;;;;;;;;;18.82;70.91;101518.09;5052744;28;19924;-67
2021/07/04 01:23:08;;;;;;;;;;;;;;;18.74;71.37;101523.09;5052511;28;20355;-67
2021/07/04 01:25:37;;;;;;;;;;;;;;;18.74;71.24;101523.94;5052400;28;19928;-67
2021/07/04 01:28:04;;;;;;;;;;;;;;;18.82;71.17;101518.09;5052582;28;19921;-67
2021/07/04 01:30:32;;;;;;;;;;;;;;;18.85;70.69;101523.94;5052680;28;19920;-67
2021/07/04 01:32:58;;;;;;;;;;;;;;;18.87;70.86;101515.94;5052746;28;19932;-67
2021/07/04 01:35:25;;;;;;;;;;;;;;;18.92;71.11;101525.16;5052516;28;19928;-67
2021/07/04 01:37:52;;;;;;;;;;;;;;;19.00;71.23;101524.56;5052372;28;19936;-67
2021/07/04 01:40:20;;;;;;;;;;;;;;;18.90;71.53;101516.53;5052737;28;19931;-67
2021/07/04 01:42:47;;;;;;;;;;;;;;;18.82;72.01;101516.28;5052177;28;19921;-67
2021/07/04 01:45:14;;;;;;;;;;;;;;;18.72;73.45;101520.56;5052415;28;20371;-67
2021/07/04 01:47:42;;;;;;;;;;;;;;;18.83;72.71;101525.03;5052342;28;19921;-67
2021/07/04 01:50:10;;;;;;;;;;;;;;;18.79;73.10;101518.34;5052292;28;19925;-67
2021/07/04 01:52:37;;;;;;;;;;;;;;;18.60;73.52;101518.88;5052084;28;19921;-68
2021/07/04 01:55:05;;;;;;;;;;;;;;;18.85;72.29;101516.03;5052640;28;19932;-67
2021/07/04 01:57:33;;;;;;;;;;;;;;;18.70;73.85;101512.78;5051946;28;19921;-67
2021/07/04 02:00:01;;;;;;;;;;;;;;;18.57;74.76;101522.56;5052124;28;20293;-67
2021/07/04 02:02:27;;;;;;;;;;;;;;;18.80;73.66;101520.00;5052334;28;19928;-67
2021/07/04 02:04:54;;;;;;;;;;;;;;;19.04;72.23;101515.47;5052009;28;19927;-67
2021/07/04 02:07:21;;;;;;;;;;;;;;;19.02;72.64;101513.91;5052460;28;19921;-67
2021/07/04 02:09:48;;;;;;;;;;;;;;;19.08;72.80;101516.03;5052276;28;19920;-67
2021/07/04 02:12:16;;;;;;;;;;;;;;;19.08;72.86;101508.97;5053342;28;20294;-67
2021/07/04 02:14:45;;;;;;;;;;;;;;;19.38;70.97;101517.22;5055926;28;19928;-67
2021/07/04 02:17:12;;;;;;;;;;;;;;;19.27;72.42;101524.19;5056382;28;19920;-67
2021/07/04 02:19:39;;;;;;;;;;;;;;;19.50;71.17;101511.78;5055742;28;19920;-67
2021/07/04 02:22:07;;;;;;;;;;;;;;;19.57;70.44;101520.03;5055966;28;19920;-67
2021/07/04 02:24:33;;;;;;;;;;;;;;;19.75;68.95;101518.56;5055963;28;19921;-67
2021/07/04 02:27:00;;;;;;;;;;;;;;;19.75;69.04;101517.72;5056272;28;19920;-67
2021/07/04 02:29:27;;;;;;;;;;;;;;;19.90;69.01;101521.75;5056272;28;19921;-67
2021/07/04 02:31:55;;;;;;;;;;;;;;;19.84;70.18;101521.44;5055938;28;19928;-68
2021/07/04 02:34:21;;;;;;;;;;;;;;;19.80;69.99;101526.13;5056042;28;19935;-67
2021/07/04 02:36:48;;;;;;;;;;;;;;;19.97;69.47;101528.22;5055691;28;19921;-67
2021/07/04 02:39:15;;;;;;;;;;;;;;;20.10;69.74;101535.13;5056065;28;19920;-67
2021/07/04 02:41:42;;;;;;;;;;;;;;;20.16;68.83;101529.31;5055778;28;19937;-67
2021/07/04 02:44:08;;;;;;;;;;;;;;;20.13;67.77;101532.22;5055884;28;19924;-67
2021/07/04 02:46:35;;;;;;;;;;;;;;;20.15;68.00;101536.41;5055593;28;19921;-67
2021/07/04 02:49:03;;;;;;;;;;;;;;;20.17;67.88;101531.84;5055612;28;19920;-67
2021/07/04 02:51:30;;;;;;;;;;;;;;;20.23;67.96;101533.13;5055501;28;19925;-67
2021/07/04 02:53:56;;;;;;;;;;;;;;;20.31;68.04;101529.84;5055382;28;19920;-67
2021/07/04 02:56:23;;;;;;;;;;;;;;;20.31;68.09;101535.13;5055259;28;19921;-68
2021/07/04 02:58:50;;;;;;;;;;;;;;;20.23;68.06;101536.59;5055400;28;19924;-68
2021/07/04 03:01:16;;;;;;;;;;;;;;;20.28;67.87;101533.59;5055622;28;19927;-68
2021/07/04 03:03:43;;;;;;;;;;;;;;;20.32;67.67;101537.66;5054957;28;19920;-68
2021/07/04 03:06:11;;;;;;;;;;;;;;;20.33;68.98;101530.56;5055248;28;20559;-68
2021/07/04 03:08:37;;;;;;;;;;;;;;;20.27;68.00;101529.28;5054858;28;20487;-68
2021/07/04 03:11:04;;;;;;;;;;;;;;;20.37;68.19;101532.81;5055158;28;19921;-68
2021/07/04 03:13:30;;;;;;;;;;;;;;;20.35;69.07;101532.13;5055330;28;19927;-68
2021/07/04 03:15:57;;;;;;;;;;;;;;;20.37;68.23;101532.81;5055379;28;19920;-68
2021/07/04 03:18:24;;;;;;;;;;;;;;;20.45;68.10;101533.00;5054923;28;19920;-68
2021/07/04 03:20:51;;;;;;;;;;;;;;;20.55;66.53;101540.19;5054661;28;19924;-68
2021/07/04 03:23:19;;;;;;;;;;;;;;;20.52;66.85;101533.31;5054462;28;19928;-68
2021/07/04 03:25:46;;;;;;;;;;;;;;;20.60;66.11;101540.63;5054705;28;19928;-68
2021/07/04 03:28:12;;;;;;;;;;;;;;;20.61;66.20;101539.66;5055035;28;19936;-68
2021/07/04 03:30:39;;;;;;;;;;;;;;;20.65;67.22;101541.94;5054852;28;19920;-68
2021/07/04 03:33:05;;;;;;;;;;;;;;;20.69;66.05;101539.03;5055049;28;19920;-68
2021/07/04 03:35:32;;;;;;;;;;;;;;;20.75;66.52;101544.59;5054446;28;19928;-68
2021/07/04 03:37:59;;;;;;;;;;;;;;;20.89;65.89;101538.16;5054703;28;20371;-68
2021/07/04 03:40:27;;;;;;;;;;;;;;;20.90;66.28;101537.16;5054893;28;19928;-68
2021/07/04 03:42:53;;;;;;;;;;;;;;;21.00;65.65;101551.25;5054629;28;19921;-68
2021/07/04 03:45:20;;;;;;;;;;;;;;;21.01;66.02;101545.00;5054835;28;20071;-68
2021/07/04 03:47:46;;;;;;;;;;;;;;;20.92;66.35;101547.63;5054360;28;19921;-68
2021/07/04 03:50:13;;;;;;;;;;;;;;;20.67;68.05;101547.06;5054326;28;19928;-68
2021/07/04 03:52:41;;;;;;;;;;;;;;;20.87;66.36;101546.19;5054432;28;19920;-68
2021/07/04 03:55:09;;;;;;;;;;;;;;;20.96;66.00;101543.72;5054363;28;19967;-68
2021/07/04 03:57:37;;;;;;;;;;;;;;;21.03;66.92;101547.53;5053881;28;19968;-68
2021/07/04 04:00:06;;;;;;;;;;;;;;;21.07;66.99;101549.78;5054460;28;19928;-68
2021/07/04 04:02:32;;;;;;;;;;;;;;;21.12;65.96;101545.88;5054280;28;19920;-68
2021/07/04 04:04:59;;;;;;;;;;;;;;;21.12;66.22;101545.88;5054168;28;20294;-68
2021/07/04 04:07:26;;;;;;;;;;;;;;;21.13;66.30;101544.91;5054273;28;19921;-68
2021/07/04 04:09:53;;;;;;;;;;;;;;;21.15;66.35;101542.97;5053827;28;19925;-68
2021/07/04 04:12:19;;;;;;;;;;;;;;;21.13;65.72;101543.09;5053950;28;19924;-68
2021/07/04 04:14:48;;;;;;;;;;;;;;;21.08;66.16;101540.03;5054040;28;20278;-68
2021/07/04 04:17:14;;;;;;;;;;;;;;;21.00;67.17;101551.25;5054065;28;19920;-68
2021/07/04 04:19:41;;;;;;;;;;;;;;;21.15;66.11;101545.63;5053928;28;19932;-68
2021/07/04 04:22:07;;;;;;;;;;;;;;;21.26;65.01;101537.56;5054050;28;19943;-68
2021/07/04 04:24:34;;;;;;;;;;;;;;;21.35;65.60;101549.16;5053732;28;19928;-68
2021/07/04 04:27:01;;;;;;;;;;;;;;;21.45;66.65;101542.97;5053634;28;19932;-68
2021/07/04 04:29:27;;;;;;;;;;;;;;;21.58;64.65;101541.84;5053673;28;19927;-68
2021/07/04 04:31:55;;;;;;;;;;;;;;;21.49;66.07;101541.69;5053659;28;19927;-68
2021/07/04 04:34:22;;;;;;;;;;;;;;;21.69;64.66;101541.75;5053850;28;19955;-68
2021/07/04 04:36:48;;;;;;;;;;;;;;;21.83;63.91;101537.84;5052372;28;19921;-68
2021/07/04 04:39:15;;;;;;;;;;;;;;;21.97;63.38;101537.44;5053698;28;19921;-68
2021/07/04 04:41:41;;;;;;;;;;;;;;;22.08;64.34;101547.88;5053505;28;19929;-68
2021/07/04 04:44:08;;;;;;;;;;;;;;;22.31;63.34;101537.00;5053389;28;19928;-68
2021/07/04 04:46:35;;;;;;;;;;;;;;;22.48;61.33;101540.72;5053382;28;19974;-68
2021/07/04 04:49:03;;;;;;;;;;;;;;;22.62;62.13;101540.28;5053165;28;19982;-68
2021/07/04 04:51:30;;;;;;;;;;;;;;;22.63;60.18;101536.63;5053469;28;19920;-68
2021/07/04 04:53:57;;;;;;;;;;;;;;;22.81;59.28;101532.28;5053181;28;19970;-68
2021/07/04 04:56:23;;;;;;;;;;;;;;;23.06;58.74;101535.25;5053160;28;19921;-68
2021/07/04 04:58:50;;;;;;;;;;;;;;;23.14;58.29;101538.00;5052759;28;19927;-68
2021/07/04 05:01:16;;;;;;;;;;;;;;;23.38;55.94;101534.81;5053322;28;19943;-68
2021/07/04 05:03:44;;;;;;;;;;;;;;;23.43;55.92;101539.69;5052797;28;19921;-68
2021/07/04 05:06:12;;;;;;;;;;;;;;;23.59;53.51;101545.16;5053008;28;20338;-68
2021/07/04 05:08:39;;;;;;;;;;;;;;;23.56;56.15;101542.81;5052943;28;19920;-68
2021/07/04 05:11:08;;;;;;;;;;;;;;;23.82;56.04;101542.09;5053172;28;19927;-68
2021/07/04 05:13:34;;;;;;;;;;;;;;;23.85;57.24;101539.97;5052616;28;20346;-67
2021/07/04 05:16:01;;;;;;;;;;;;;;;23.86;55.56;101538.13;5052956;28;19921;-67
2021/07/04 05:18:27;;;;;;;;;;;;;;;24.02;54.96;101540.94;5052718;28;19921;-67
2021/07/04 05:20:54;;;;;;;;;;;;;;;23.56;57.12;101539.31;5052488;28;20019;-67
2021/07/04 05:23:22;;;;;;;;;;;;;;;23.78;57.09;101538.06;5057186;28;19927;-68
2021/07/04 05:25:49;;;;;;;;;;;;;;;24.09;57.04;101538.50;5061940;28;19931;-68
2021/07/04 05:28:15;;;;;;;;;;;;;;;24.22;56.90;101549.56;5039766;28;19920;-67
2021/07/04 05:30:42;;;;;;;;;;;;;;;24.28;53.98;101538.31;5038021;28;19925;-67
2021/07/04 05:33:09;;;;;;;;;;;;;;;24.40;55.46;101544.19;5056592;28;20274;-67
2021/07/04 05:35:35;;;;;;;;;;;;;;;24.39;55.72;101544.38;5056404;28;19917;-67
2021/07/04 05:38:02;;;;;;;;;;;;;;;24.42;54.31;101536.09;5056372;28;19917;-67
2021/07/04 05:40:30;;;;;;;;;;;;;;;24.33;56.11;101541.34;5044500;28;19923;-69
2021/07/04 05:42:56;;;;;;;;;;;;;;;24.50;55.03;101541.47;5026487;28;19917;-66
2021/07/04 05:45:24;;;;;;;;;;;;;;;24.62;56.49;101542.91;5036266;28;19978;-66
2021/07/04 05:47:51;;;;;;;;;;;;;;;24.55;55.66;101544.50;5026970;28;19924;-67
2021/07/04 05:50:18;;;;;;;;;;;;;;;24.55;55.54;101534.69;5026611;28;19917;-66
2021/07/04 05:52:45;;;;;;;;;;;;;;;24.75;56.61;101540.63;5036231;28;19924;-66
2021/07/04 05:55:12;;;;;;;;;;;;;;;24.94;51.79;101542.22;5036231;28;20424;-67
2021/07/04 05:57:40;;;;;;;;;;;;;;;25.11;51.49;101540.47;5046979;28;20286;-66
2021/07/04 06:00:08;;;;;;;;;;;;;;;25.31;50.07;101535.75;5055089;28;19924;-66
2021/07/04 06:02:35;;;;;;;;;;;;;;;25.37;48.69;101529.75;5055683;28;19917;-65
2021/07/04 06:05:01;;;;;;;;;;;;;;;25.49;50.42;101530.28;5056394;28;19932;-66
2021/07/04 06:07:28;;;;;;;;;;;;;;;25.44;51.53;101532.63;5056339;28;19925;-66
2021/07/04 06:09:54;;;;;;;;;;;;;;;25.60;50.00;101535.31;5047276;28;19917;-66
2021/07/04 06:12:21;;;;;;;;;;;;;;;25.61;51.08;101533.47;5056025;28;19924;-67
2021/07/04 06:14:49;;;;;;;;;;;;;;;25.59;48.19;101538.16;5055760;28;19923;-66
2021/07/04 06:17:15;;;;;;;;;;;;;;;25.31;51.73;101537.59;5046183;28;19917;-66
2021/07/04 06:19:42;;;;;;;;;;;;;;;25.59;50.79;101538.97;5055625;28;19917;-67
2021/07/04 06:22:08;;;;;;;;;;;;;;;25.62;52.19;101543.97;5055545;28;19917;-66
2021/07/04 06:24:35;;;;;;;;;;;;;;;25.59;53.27;101544.31;5054043;28;20370;-67
2021/07/04 06:27:01;;;;;;;;;;;;;;;25.63;53.00;101542.13;5055376;28;20482;-67
2021/07/04 06:29:28;;;;;;;;;;;;;;;25.79;52.78;101541.31;5045365;28;19917;-66
2021/07/04 06:31:56;;;;;;;;;;;;;;;25.88;49.98;101540.38;5041909;28;19917;-66
2021/07/04 06:34:23;;;;;;;;;;;;;;;25.61;49.46;101542.31;5036017;28;19924;-67
2021/07/04 06:36:49;;;;;;;;;;;;;;;25.66;50.57;101546.31;5027030;28;19916;-66
2021/07/04 06:39:16;;;;;;;;;;;;;;;25.87;49.12;101541.38;5035937;28;19916;-66
2021/07/04 06:41:42;;;;;;;;;;;;;;;25.99;47.88;101541.88;5035319;28;19916;-65
2021/07/04 06:44:09;;;;;;;;;;;;;;;25.98;48.89;101542.88;5035976;28;19917;-64
2021/07/04 06:46:35;;;;;;;;;;;;;;;26.18;46.62;101544.19;5035946;28;19925;-67
2021/07/04 06:49:03;;;;;;;;;;;;;;;26.23;46.54;101543.69;5035420;28;19932;-66
2021/07/04 06:51:30;;;;;;;;;;;;;;;26.40;48.27;101547.16;5030857;28;19926;-67
2021/07/04 06:53:57;;;;;;;;;;;;;;;26.45;46.59;101545.66;5035665;28;20003;-67
2021/07/04 06:56:23;;;;;;;;;;;;;;;26.71;47.55;101545.44;5035887;28;19924;-66
2021/07/04 06:58:50;;;;;;;;;;;;;;;27.44;44.41;101548.03;5027391;28;19924;-67
2021/07/04 07:01:16;;;;;;;;;;;;;;;27.93;43.83;101547.72;5039438;28;19917;-66
2021/07/04 07:03:43;;;;;;;;;;;;;;;28.40;41.19;101544.75;5038839;28;19916;-66
2021/07/04 07:06:11;;;;;;;;;;;;;;;28.78;41.57;101547.41;5039168;28;19916;-64
2021/07/04 07:08:37;;;;;;;;;;;;;;;28.99;39.75;101549.31;5038727;28;19917;-67
2021/07/04 07:11:04;;;;;;;;;;;;;;;29.06;38.54;101550.28;5038847;28;19916;-66
2021/07/04 07:13:31;;;;;;;;;;;;;;;29.40;38.30;101545.31;5039238;28;19917;-65
2021/07/04 07:15:57;;;;;;;;;;;;;;;29.82;38.41;101549.03;5038701;28;20502;-66
2021/07/04 07:18:24;;;;;;;;;;;;;;;30.01;36.59;101542.22;5039101;28;19924;-66
2021/07/04 07:20:50;;;;;;;;;;;;;;;30.12;35.96;101536.31;5029116;28;19924;-66
2021/07/04 07:23:18;;;;;;;;;;;;;;;30.77;34.92;101536.94;5038864;28;19917;-66
2021/07/04 07:25:45;;;;;;;;;;;;;;;30.98;34.89;101549.47;5030289;28;19917;-66
2021/07/04 07:28:11;;;;;;;;;;;;;;;31.41;34.26;101544.69;5029271;28;20382;-66
2021/07/04 07:30:38;;;;;;;;;;;;;;;31.73;33.44;101547.66;5041416;28;20386;-65
2021/07/04 07:33:05;;;;;;;;;;;;;;;31.41;34.19;101542.00;5058375;28;19917;-65
2021/07/04 07:35:32;;;;;;;;;;;;;;;32.32;32.96;101537.94;5058797;28;19922;-67
2021/07/04 07:38:01;;;;;;;;;;;;;;;32.19;31.90;101537.94;5058197;28;19916;-64
2021/07/04 07:40:30;;;;;;;;;;;;;;;32.37;31.57;101531.91;5058423;28;20378;-66
2021/07/04 07:42:57;;;;;;;;;;;;;;;32.08;33.49;101537.53;5057808;28;19977;-67
2021/07/04 07:45:24;;;;;;;;;;;;;;;32.87;30.68;101538.41;5058459;28;19924;-67
2021/07/04 07:47:51;;;;;;;;;;;;;;;33.20;29.45;101534.78;5058070;28;19916;-66
2021/07/04 07:50:17;;;;;;;;;;;;;;;33.67;29.71;101534.50;5058200;28;19924;-66
2021/07/04 07:52:45;;;;;;;;;;;;;;;34.08;27.99;101531.28;5058238;28;20003;-66
2021/07/04 07:55:12;;;;;;;;;;;;;;;34.48;28.84;101531.72;5058211;28;20503;-66
2021/07/04 07:57:40;;;;;;;;;;;;;;;34.79;27.87;101538.03;5057554;28;19923;-66
2021/07/04 08:00:08;;;;;;;;;;;;;;;34.33;30.83;101530.44;5058333;28;19923;-68
2021/07/04 08:02:35;;;;;;;;;;;;;;;34.34;33.14;101535.59;5057422;28;19932;-67
2021/07/04 08:05:01;;;;;;;;;;;;;;;35.53;28.35;101538.72;5057774;28;19924;-68
2021/07/04 08:07:28;;;;;;;;;;;;;;;35.60;29.24;101543.22;5049193;28;20385;-67
2021/07/04 08:09:54;;;;;;;;;;;;;;;34.53;28.51;101532.88;5057458;28;19916;-70
2021/07/04 08:12:21;;;;;;;;;;;;;;;35.24;27.55;101529.56;5057728;28;19924;-64
2021/07/04 08:14:49;;;;;;;;;;;;;;;35.34;27.73;101535.22;5057513;28;19916;-64
2021/07/04 08:17:16;;;;;;;;;;;;;;;35.07;28.97;101536.66;5057470;28;19916;-67
2021/07/04 08:19:42;;;;;;;;;;;;;;;35.58;28.59;101538.03;5056960;28;19916;-65
2021/07/04 08:22:09;;;;;;;;;;;;;;;35.66;26.84;101534.16;5057393;28;20354;-67
2021/07/04 08:24:35;;;;;;;;;;;;;;;36.18;27.60;101532.47;5057134;28;20363;-66
2021/07/04 08:27:02;;;;;;;;;;;;;;;35.94;29.48;101528.06;5046650;28;20287;-67
2021/07/04 08:29:28;;;;;;;;;;;;;;;36.31;26.84;101536.00;5057152;28;19916;-67
2021/07/04 08:31:56;;;;;;;;;;;;;;;36.04;27.18;101528.31;5042976;28;19917;-67
2021/07/04 08:34:23;;;;;;;;;;;;;;;35.88;29.16;101535.25;5026854;28;22575;-66
2021/07/04 08:36:50;;;;;;;;;;;;;;;36.27;27.31;101524.78;5037316;28;19920;-66
2021/07/04 08:39:16;;;;;;;;;;;;;;;36.70;28.67;101520.84;5037357;28;19917;-67
2021/07/04 08:41:43;;;;;;;;;;;;;;;36.46;28.11;101522.78;5036946;28;19924;-66
2021/07/04 08:44:10;;;;;;;;;;;;;;;37.60;27.64;101530.16;5037538;28;19931;-67
2021/07/04 08:46:39;;;;;;;;;;;;;;;35.11;26.98;101522.44;5036580;28;19924;-65
2021/07/04 08:49:07;;;;;;;;;;;;;;;35.89;27.22;101525.25;5028321;28;19931;-67
2021/07/04 08:51:34;;;;;;;;;;;;;;;36.57;26.81;101529.25;5031399;28;19924;-67
2021/07/04 08:54:00;;;;;;;;;;;;;;;36.41;27.00;101520.78;5037030;28;19925;-66
2021/07/04 08:56:27;;;;;;;;;;;;;;;36.75;28.53;101528.28;5026517;28;21617;-66
2021/07/04 08:58:53;;;;;;;;;;;;;;;36.86;29.65;101527.41;5027009;28;19925;-67
2021/07/04 09:01:21;;;;;;;;;;;;;;;36.77;25.73;101528.84;5037002;28;19924;-66
2021/07/04 09:03:49;;;;;;;;;;;;;;;36.88;25.87;101524.47;5036941;28;19916;-66
2021/07/04 09:06:35;;;;;;;;;;;;;;;37.66;26.74;101531.06;5036995;28;19931;-67
2021/07/04 09:09:14;;;;;;;;;;;;;;;37.33;25.77;101532.66;5035554;28;19924;-66
2021/07/04 09:11:50;;;;;;;;;;;;;;;37.31;24.52;101531.25;5035407;28;19917;-65
2021/07/04 09:14:17;;;;;;;;;;;;;;;36.66;25.54;101525.13;5036177;28;19917;-66
2021/07/04 09:16:47;;;;;;;;;;;;;;;36.93;25.66;101528.09;5036782;28;19924;-66
2021/07/04 09:19:16;;;;;;;;;;;;;;;37.20;28.58;101527.50;5036206;28;20310;-64
2021/07/04 09:21:43;;;;;;;;;;;;;;;36.92;24.65;101520.19;5035955;28;19920;-67
2021/07/04 09:24:24;;;;;;;;;;;;;;;37.96;25.62;101517.13;5026902;28;19917;-66
2021/07/04 09:26:50;;;;;;;;;;;;;;;37.93;25.76;101523.06;5035262;28;20054;-66
2021/07/04 09:29:17;;;;;;;;;;;;;;;37.64;24.21;101525.88;5036508;28;19917;-64
2021/07/04 09:31:44;;;;;;;;;;;;;;;39.05;23.74;101512.03;5048831;28;19925;-67
2021/07/04 09:34:11;;;;;;;;;;;;;;;37.57;24.50;101516.25;5056754;28;19932;-67
2021/07/04 09:36:39;;;;;;;;;;;;;;;38.68;24.16;101507.25;5056522;28;20468;-67
2021/07/04 09:39:19;;;;;;;;;;;;;;;38.54;22.43;101506.84;5056041;28;19925;-65
2021/07/04 09:42:09;;;;;;;;;;;;;;;38.59;23.88;101508.75;5055332;28;19928;-66
2021/07/04 09:44:38;;;;;;;;;;;;;;;39.90;22.49;101507.63;5038312;28;20424;-66
2021/07/04 09:47:15;;;;;;;;;;;;;;;38.60;24.31;101511.25;5056592;28;20389;-67
2021/07/04 09:49:42;;;;;;;;;;;;;;;36.25;26.09;101516.09;5054952;28;19931;-67
2021/07/04 09:52:12;;;;;;;;;;;;;;;36.37;27.25;101508.75;5056209;28;19925;-67
2021/07/04 09:54:38;;;;;;;;;;;;;;;37.95;24.21;101517.41;5055780;28;19931;-67
2021/07/04 09:57:06;;;;;;;;;;;;;;;37.41;26.61;101512.44;5056439;28;19928;-67
2021/07/04 09:59:33;;;;;;;;;;;;;;;38.40;24.40;101516.41;5056221;28;19916;-67
2021/07/04 10:02:01;;;;;;;;;;;;;;;38.90;24.54;101515.44;5056370;28;19935;-67
2021/07/04 10:04:29;;;;;;;;;;;;;;;37.66;26.73;101517.47;5055976;28;19916;-66
2021/07/04 10:06:55;;;;;;;;;;;;;;;37.89;24.24;101516.47;5056005;28;19916;-67
2021/07/04 10:09:25;;;;;;;;;;;;;;;38.22;25.30;101512.91;5056028;28;20286;-65
2021/07/04 10:11:51;;;;;;;;;;;;;;;38.33;24.69;101513.84;5055637;28;20007;-65
2021/07/04 10:14:18;;;;;;;;;;;;;;;36.46;28.41;101508.41;5056129;28;19925;-67
2021/07/04 10:16:46;;;;;;;;;;;;;;;37.27;25.20;101506.50;5055778;28;19924;-67
2021/07/04 10:19:18;;;;;;;;;;;;;;;38.09;24.96;101511.38;5055955;28;20375;-67
2021/07/04 10:21:45;;;;;;;;;;;;;;;37.37;25.85;101505.84;5055152;28;19936;-67
2021/07/04 10:24:12;;;;;;;;;;;;;;;37.63;27.26;101518.78;5055529;28;19924;-67
2021/07/04 10:26:39;;;;;;;;;;;;;;;37.80;28.17;101520.69;5045679;28;19917;-67
2021/07/04 10:29:07;;;;;;;;;;;;;;;37.63;29.18;101526.13;5047523;28;20354;-67
2021/07/04 10:31:34;;;;;;;;;;;;;;;36.44;29.59;101510.53;5044915;28;19931;-67
2021/07/04 10:34:05;;;;;;;;;;;;;;;36.80;28.03;101514.81;5038596;28;19924;-67
2021/07/04 10:36:35;;;;;;;;;;;;;;;38.91;28.89;101511.63;5039262;28;19917;-67
2021/07/04 10:39:10;;;;;;;;;;;;;;;38.00;27.22;101521.03;5036413;28;19970;-65
2021/07/04 10:41:38;;;;;;;;;;;;;;;39.12;26.73;101518.91;5038820;28;19925;-67
2021/07/04 10:44:07;;;;;;;;;;;;;;;38.58;27.80;101520.72;5039293;28;19916;-66
2021/07/04 10:46:52;;;;;;;;;;;;;;;37.62;28.01;101516.34;5028337;28;20417;-67
2021/07/04 10:49:19;;;;;;;;;;;;;;;38.31;27.98;101524.19;5037875;28;20387;-67
2021/07/04 10:52:04;;;;;;;;;;;;;;;36.54;28.84;101513.47;5039282;28;19924;-67
2021/07/04 10:54:46;;;;;;;;;;;;;;;37.60;26.71;101519.28;5038025;28;20272;-67
2021/07/04 10:57:13;;;;;;;;;;;;;;;36.31;27.77;101519.75;5029567;28;20287;-67
2021/07/04 10:59:49;;;;;;;;;;;;;;;36.10;30.32;101521.19;5038969;28;19932;-67
2021/07/04 11:02:30;;;;;;;;;;;;;;;36.94;28.79;101521.59;5038576;28;19917;-67
2021/07/04 11:04:57;;;;;;;;;;;;;;;37.85;28.92;101526.22;5037011;28;19916;-66
2021/07/04 11:07:23;;;;;;;;;;;;;;;39.32;26.34;101523.72;5039183;28;19923;-66
2021/07/04 11:10:09;;;;;;;;;;;;;;;36.93;27.21;101524.56;5039021;28;19925;-66
2021/07/04 11:12:37;;;;;;;;;;;;;;;37.14;26.67;101526.59;5037289;28;19917;-67
2021/07/04 11:15:22;;;;;;;;;;;;;;;38.20;25.78;101515.03;5038657;28;19917;-66
2021/07/04 11:18:05;;;;;;;;;;;;;;;38.61;25.55;101518.31;5024592;28;19916;-67
2021/07/04 11:20:32;;;;;;;;;;;;;;;40.19;24.42;101518.13;5028015;28;19924;-67
2021/07/04 11:22:59;;;;;;;;;;;;;;;39.96;23.53;101522.09;5029808;28;19917;-64
2021/07/04 11:25:37;;;;;;;;;;;;;;;40.38;23.92;101522.03;5038851;28;19924;-64
2021/07/04 11:28:27;;;;;;;;;;;;;;;40.52;23.40;101516.94;5038015;28;19932;-67
2021/07/04 11:30:55;;;;;;;;;;;;;;;39.67;22.95;101516.97;5040507;28;20301;-66
2021/07/04 11:33:39;;;;;;;;;;;;;;;40.40;23.04;101521.78;5058491;28;19923;-65
2021/07/04 11:36:07;;;;;;;;;;;;;;;40.41;22.38;101515.25;5044309;28;19935;-65
2021/07/04 11:38:35;;;;;;;;;;;;;;;40.52;22.56;101516.94;5058163;28;19924;-64
2021/07/04 11:41:03;;;;;;;;;;;;;;;39.66;23.31;101518.03;5048642;28;19924;-65
2021/07/04 11:43:31;;;;;;;;;;;;;;;39.30;23.53;101514.97;5047349;28;19916;-67
2021/07/04 11:45:58;;;;;;;;;;;;;;;38.13;25.08;101514.44;5057775;28;19924;-65
2021/07/04 11:48:39;;;;;;;;;;;;;;;39.80;22.65;101521.16;5058466;28;19924;-65
2021/07/04 11:51:06;;;;;;;;;;;;;;;39.36;22.76;101518.59;5057129;28;20473;-65
2021/07/04 11:53:33;;;;;;;;;;;;;;;40.04;22.52;101516.94;5058126;28;19924;-64
2021/07/04 11:56:01;;;;;;;;;;;;;;;40.76;21.32;101511.03;5049616;28;19924;-64
2021/07/04 11:58:29;;;;;;;;;;;;;;;40.23;21.48;101509.19;5058338;28;19931;-65
2021/07/04 12:00:57;;;;;;;;;;;;;;;40.83;21.95;101512.41;5057965;28;19924;-65
2021/07/04 12:03:25;;;;;;;;;;;;;;;41.93;19.49;101518.53;5057983;28;19916;-65
2021/07/04 12:05:52;;;;;;;;;;;;;;;41.78;18.84;101517.41;5046773;28;19939;-65
2021/07/04 12:08:19;;;;;;;;;;;;;;;39.55;21.31;101511.69;5049384;28;19970;-64
2021/07/04 12:10:53;;;;;;;;;;;;;;;40.10;21.20;101508.81;5057894;28;19916;-65
2021/07/04 12:13:19;;;;;;;;;;;;;;;39.72;22.76;101511.56;5057761;28;19931;-65
2021/07/04 12:15:49;;;;;;;;;;;;;;;41.61;21.14;101524.28;5057628;28;19931;-65
2021/07/04 12:18:18;;;;;;;;;;;;;;;40.16;21.57;101507.75;5057766;28;19920;-66
2021/07/04 12:20:51;;;;;;;;;;;;;;;41.59;19.68;101521.78;5057256;28;20366;-65
2021/07/04 12:23:18;;;;;;;;;;;;;;;40.58;19.83;101512.31;5057267;28;20302;-65
2021/07/04 12:25:45;;;;;;;;;;;;;;;41.48;20.33;101515.50;5057398;28;19916;-64
2021/07/04 12:28:12;;;;;;;;;;;;;;;42.47;19.22;101517.81;5057595;28;19932;-66
2021/07/04 12:30:39;;;;;;;;;;;;;;;40.89;20.19;101516.78;5053706;28;20294;-65
2021/07/04 12:33:07;;;;;;;;;;;;;;;40.67;21.20;101505.28;5037494;28;19923;-65
2021/07/04 12:35:39;;;;;;;;;;;;;;;40.26;22.06;101513.28;5037418;28;19924;-65
2021/07/04 12:38:08;;;;;;;;;;;;;;;40.78;21.12;101509.69;5037003;28;19923;-65
2021/07/04 12:40:35;;;;;;;;;;;;;;;41.54;22.00;101510.88;5037315;28;19917;-65